sensor_id;sensor_type;location;lat;lon;timestamp;temperature;humidity
40636;DHT22;26642;55.766;37.828;2022-08-02T00:00:17;21.10;60.90
40636;DHT22;26642;55.766;37.828;2022-08-02T00:02:44;21.10;61.00
40636;DHT22;26642;55.766;37.828;2022-08-02T00:05:10;21.00;61.20
40636;DHT22;26642;55.766;37.828;2022-08-02T00:07:37;21.10;61.30
40636;DHT22;26642;55.766;37.828;2022-08-02T00:10:04;21.00;61.30
40636;DHT22;26642;55.766;37.828;2022-08-02T00:12:30;21.00;61.30
40636;DHT22;26642;55.766;37.828;2022-08-02T00:14:56;21.00;61.40
40636;DHT22;26642;55.766;37.828;2022-08-02T00:17:22;21.00;61.70
40636;DHT22;26642;55.766;37.828;2022-08-02T00:19:48;20.80;62.10
40636;DHT22;26642;55.766;37.828;2022-08-02T00:22:14;20.80;62.10
40636;DHT22;26642;55.766;37.828;2022-08-02T00:24:40;20.90;62.00
40636;DHT22;26642;55.766;37.828;2022-08-02T00:27:06;20.80;62.30
40636;DHT22;26642;55.766;37.828;2022-08-02T00:29:35;20.80;62.50
40636;DHT22;26642;55.766;37.828;2022-08-02T00:32:01;20.80;62.60
40636;DHT22;26642;55.766;37.828;2022-08-02T00:34:27;20.70;62.70
40636;DHT22;26642;55.766;37.828;2022-08-02T00:36:53;20.60;63.40
40636;DHT22;26642;55.766;37.828;2022-08-02T00:39:19;20.60;63.10
40636;DHT22;26642;55.766;37.828;2022-08-02T00:41:47;20.60;63.40
40636;DHT22;26642;55.766;37.828;2022-08-02T00:44:15;20.70;63.30
40636;DHT22;26642;55.766;37.828;2022-08-02T00:46:41;20.60;63.30
40636;DHT22;26642;55.766;37.828;2022-08-02T00:49:07;20.70;63.20
40636;DHT22;26642;55.766;37.828;2022-08-02T00:51:34;20.70;63.30
40636;DHT22;26642;55.766;37.828;2022-08-02T00:54:00;20.60;63.50
40636;DHT22;26642;55.766;37.828;2022-08-02T00:56:26;20.60;64.00
40636;DHT22;26642;55.766;37.828;2022-08-02T00:58:52;20.60;66.40
40636;DHT22;26642;55.766;37.828;2022-08-02T01:01:18;20.50;65.80
40636;DHT22;26642;55.766;37.828;2022-08-02T01:03:44;20.50;64.80
40636;DHT22;26642;55.766;37.828;2022-08-02T01:06:10;20.50;65.90
40636;DHT22;26642;55.766;37.828;2022-08-02T01:08:39;20.50;65.90
40636;DHT22;26642;55.766;37.828;2022-08-02T01:11:05;20.50;65.30
40636;DHT22;26642;55.766;37.828;2022-08-02T01:13:31;20.50;65.30
40636;DHT22;26642;55.766;37.828;2022-08-02T01:16:03;20.50;65.30
40636;DHT22;26642;55.766;37.828;2022-08-02T01:18:35;20.40;65.20
40636;DHT22;26642;55.766;37.828;2022-08-02T01:29:34;20.30;66.00
40636;DHT22;26642;55.766;37.828;2022-08-02T01:32:11;20.30;65.50
40636;DHT22;26642;55.766;37.828;2022-08-02T01:34:58;20.20;65.70
40636;DHT22;26642;55.766;37.828;2022-08-02T01:37:36;20.20;65.60
40636;DHT22;26642;55.766;37.828;2022-08-02T01:40:13;20.10;66.30
40636;DHT22;26642;55.766;37.828;2022-08-02T01:42:45;20.20;65.80
40636;DHT22;26642;55.766;37.828;2022-08-02T01:45:12;20.20;65.80
40636;DHT22;26642;55.766;37.828;2022-08-02T01:47:40;20.30;65.60
40636;DHT22;26642;55.766;37.828;2022-08-02T01:50:10;20.10;66.20
40636;DHT22;26642;55.766;37.828;2022-08-02T01:52:42;20.10;66.60
40636;DHT22;26642;55.766;37.828;2022-08-02T01:55:19;20.20;66.10
40636;DHT22;26642;55.766;37.828;2022-08-02T01:57:52;20.20;66.60
40636;DHT22;26642;55.766;37.828;2022-08-02T02:00:22;20.20;66.30
40636;DHT22;26642;55.766;37.828;2022-08-02T02:02:52;20.10;66.50
40636;DHT22;26642;55.766;37.828;2022-08-02T02:05:20;20.10;67.00
40636;DHT22;26642;55.766;37.828;2022-08-02T02:07:50;20.10;67.30
40636;DHT22;26642;55.766;37.828;2022-08-02T02:10:27;20.00;67.20
40636;DHT22;26642;55.766;37.828;2022-08-02T02:12:57;20.00;66.90
40636;DHT22;26642;55.766;37.828;2022-08-02T02:15:25;20.00;67.60
40636;DHT22;26642;55.766;37.828;2022-08-02T02:17:52;20.00;68.50
40636;DHT22;26642;55.766;37.828;2022-08-02T02:20:20;20.00;68.70
40636;DHT22;26642;55.766;37.828;2022-08-02T02:22:47;20.00;68.70
40636;DHT22;26642;55.766;37.828;2022-08-02T02:25:14;20.20;68.20
40636;DHT22;26642;55.766;37.828;2022-08-02T02:27:57;20.30;68.00
40636;DHT22;26642;55.766;37.828;2022-08-02T02:30:26;20.40;67.60
40636;DHT22;26642;55.766;37.828;2022-08-02T02:32:55;20.50;67.60
40636;DHT22;26642;55.766;37.828;2022-08-02T02:35:23;20.60;66.90
40636;DHT22;26642;55.766;37.828;2022-08-02T02:37:54;20.70;66.30
40636;DHT22;26642;55.766;37.828;2022-08-02T02:40:21;20.80;65.70
40636;DHT22;26642;55.766;37.828;2022-08-02T02:42:50;20.90;66.30
40636;DHT22;26642;55.766;37.828;2022-08-02T02:45:18;21.00;66.10
40636;DHT22;26642;55.766;37.828;2022-08-02T02:47:46;21.00;65.50
40636;DHT22;26642;55.766;37.828;2022-08-02T02:50:15;21.00;65.60
40636;DHT22;26642;55.766;37.828;2022-08-02T02:52:43;21.10;65.30
40636;DHT22;26642;55.766;37.828;2022-08-02T02:55:10;21.20;65.10
40636;DHT22;26642;55.766;37.828;2022-08-02T02:57:37;21.20;64.80
40636;DHT22;26642;55.766;37.828;2022-08-02T03:00:11;21.10;64.80
40636;DHT22;26642;55.766;37.828;2022-08-02T03:02:39;21.10;64.90
40636;DHT22;26642;55.766;37.828;2022-08-02T03:05:06;21.00;64.90
40636;DHT22;26642;55.766;37.828;2022-08-02T03:07:33;21.00;65.00
40636;DHT22;26642;55.766;37.828;2022-08-02T03:10:02;21.00;64.90
40636;DHT22;26642;55.766;37.828;2022-08-02T03:12:28;20.90;65.10
40636;DHT22;26642;55.766;37.828;2022-08-02T03:14:55;20.80;65.50
40636;DHT22;26642;55.766;37.828;2022-08-02T03:17:22;20.70;65.40
40636;DHT22;26642;55.766;37.828;2022-08-02T03:19:48;20.70;65.70
40636;DHT22;26642;55.766;37.828;2022-08-02T03:22:14;20.70;65.80
40636;DHT22;26642;55.766;37.828;2022-08-02T03:24:40;20.70;66.10
40636;DHT22;26642;55.766;37.828;2022-08-02T03:27:06;20.70;66.00
40636;DHT22;26642;55.766;37.828;2022-08-02T03:29:32;20.70;65.90
40636;DHT22;26642;55.766;37.828;2022-08-02T03:31:58;20.60;66.10
40636;DHT22;26642;55.766;37.828;2022-08-02T03:34:24;20.70;66.30
40636;DHT22;26642;55.766;37.828;2022-08-02T03:36:54;20.60;66.30
40636;DHT22;26642;55.766;37.828;2022-08-02T03:39:21;20.70;66.20
40636;DHT22;26642;55.766;37.828;2022-08-02T03:41:48;20.60;66.40
40636;DHT22;26642;55.766;37.828;2022-08-02T03:44:15;20.50;66.50
40636;DHT22;26642;55.766;37.828;2022-08-02T03:46:42;20.60;67.30
40636;DHT22;26642;55.766;37.828;2022-08-02T03:49:09;20.60;66.90
40636;DHT22;26642;55.766;37.828;2022-08-02T03:51:38;20.60;66.80
40636;DHT22;26642;55.766;37.828;2022-08-02T03:54:04;20.60;66.50
40636;DHT22;26642;55.766;37.828;2022-08-02T03:56:31;20.60;66.30
40636;DHT22;26642;55.766;37.828;2022-08-02T04:01:32;20.70;66.60
40636;DHT22;26642;55.766;37.828;2022-08-02T04:03:58;20.90;66.60
40636;DHT22;26642;55.766;37.828;2022-08-02T04:06:24;21.10;66.10
40636;DHT22;26642;55.766;37.828;2022-08-02T04:08:50;21.30;65.70
40636;DHT22;26642;55.766;37.828;2022-08-02T04:11:17;21.60;65.20
40636;DHT22;26642;55.766;37.828;2022-08-02T04:14:06;21.80;64.70
40636;DHT22;26642;55.766;37.828;2022-08-02T04:16:43;21.90;64.20
40636;DHT22;26642;55.766;37.828;2022-08-02T04:19:16;22.20;63.50
40636;DHT22;26642;55.766;37.828;2022-08-02T04:21:45;22.30;63.30
40636;DHT22;26642;55.766;37.828;2022-08-02T04:24:13;22.50;63.00
40636;DHT22;26642;55.766;37.828;2022-08-02T04:26:41;22.70;62.80
40636;DHT22;26642;55.766;37.828;2022-08-02T04:29:10;22.80;62.40
40636;DHT22;26642;55.766;37.828;2022-08-02T04:31:38;23.00;61.90
40636;DHT22;26642;55.766;37.828;2022-08-02T04:34:05;23.20;61.60
40636;DHT22;26642;55.766;37.828;2022-08-02T04:36:31;23.30;61.30
40636;DHT22;26642;55.766;37.828;2022-08-02T04:38:57;23.50;60.80
40636;DHT22;26642;55.766;37.828;2022-08-02T04:41:36;23.60;60.40
40636;DHT22;26642;55.766;37.828;2022-08-02T04:44:02;23.80;60.00
40636;DHT22;26642;55.766;37.828;2022-08-02T04:46:28;23.90;59.80
40636;DHT22;26642;55.766;37.828;2022-08-02T04:48:54;24.00;59.20
40636;DHT22;26642;55.766;37.828;2022-08-02T04:51:21;24.10;58.80
40636;DHT22;26642;55.766;37.828;2022-08-02T04:53:48;24.30;58.70
40636;DHT22;26642;55.766;37.828;2022-08-02T04:56:13;24.40;58.60
40636;DHT22;26642;55.766;37.828;2022-08-02T04:58:39;24.50;58.30
40636;DHT22;26642;55.766;37.828;2022-08-02T05:01:05;24.60;57.90
40636;DHT22;26642;55.766;37.828;2022-08-02T05:03:31;24.70;57.90
40636;DHT22;26642;55.766;37.828;2022-08-02T05:05:57;24.80;57.60
40636;DHT22;26642;55.766;37.828;2022-08-02T05:08:25;25.00;57.40
40636;DHT22;26642;55.766;37.828;2022-08-02T05:10:51;25.10;57.20
40636;DHT22;26642;55.766;37.828;2022-08-02T05:13:17;25.30;57.00
40636;DHT22;26642;55.766;37.828;2022-08-02T05:15:43;25.40;56.20
40636;DHT22;26642;55.766;37.828;2022-08-02T05:18:09;25.30;55.90
40636;DHT22;26642;55.766;37.828;2022-08-02T05:20:35;25.10;56.10
40636;DHT22;26642;55.766;37.828;2022-08-02T05:23:01;24.90;56.60
40636;DHT22;26642;55.766;37.828;2022-08-02T05:25:28;24.70;57.30
40636;DHT22;26642;55.766;37.828;2022-08-02T05:27:54;24.60;57.30
40636;DHT22;26642;55.766;37.828;2022-08-02T05:30:20;24.50;57.30
40636;DHT22;26642;55.766;37.828;2022-08-02T05:32:47;24.40;58.00
40636;DHT22;26642;55.766;37.828;2022-08-02T05:35:18;24.40;58.10
40636;DHT22;26642;55.766;37.828;2022-08-02T05:37:45;24.30;58.40
40636;DHT22;26642;55.766;37.828;2022-08-02T05:40:11;24.40;58.30
40636;DHT22;26642;55.766;37.828;2022-08-02T05:42:37;24.60;57.70
40636;DHT22;26642;55.766;37.828;2022-08-02T05:45:04;24.70;57.40
40636;DHT22;26642;55.766;37.828;2022-08-02T05:47:30;24.70;57.30
40636;DHT22;26642;55.766;37.828;2022-08-02T05:49:56;24.60;57.30
40636;DHT22;26642;55.766;37.828;2022-08-02T05:52:25;24.70;57.50
40636;DHT22;26642;55.766;37.828;2022-08-02T05:55:07;24.90;57.50
40636;DHT22;26642;55.766;37.828;2022-08-02T06:00:41;25.90;56.40
40636;DHT22;26642;55.766;37.828;2022-08-02T06:03:30;26.20;55.30
40636;DHT22;26642;55.766;37.828;2022-08-02T06:08:24;26.30;54.80
40636;DHT22;26642;55.766;37.828;2022-08-02T06:10:55;26.10;54.80
40636;DHT22;26642;55.766;37.828;2022-08-02T06:13:24;26.00;54.90
40636;DHT22;26642;55.766;37.828;2022-08-02T06:15:51;26.10;55.30
40636;DHT22;26642;55.766;37.828;2022-08-02T06:18:18;26.20;55.00
40636;DHT22;26642;55.766;37.828;2022-08-02T06:20:48;26.20;54.30
40636;DHT22;26642;55.766;37.828;2022-08-02T06:23:16;26.00;55.00
40636;DHT22;26642;55.766;37.828;2022-08-02T06:25:45;26.00;55.00
40636;DHT22;26642;55.766;37.828;2022-08-02T06:28:13;26.00;55.10
40636;DHT22;26642;55.766;37.828;2022-08-02T06:30:43;26.00;55.40
40636;DHT22;26642;55.766;37.828;2022-08-02T06:33:09;26.00;55.70
40636;DHT22;26642;55.766;37.828;2022-08-02T06:35:57;26.00;55.40
40636;DHT22;26642;55.766;37.828;2022-08-02T06:38:28;26.00;56.20
40636;DHT22;26642;55.766;37.828;2022-08-02T06:41:06;26.20;55.30
40636;DHT22;26642;55.766;37.828;2022-08-02T06:46:09;26.50;55.00
40636;DHT22;26642;55.766;37.828;2022-08-02T06:48:35;26.60;54.70
40636;DHT22;26642;55.766;37.828;2022-08-02T06:51:03;26.70;54.40
40636;DHT22;26642;55.766;37.828;2022-08-02T06:53:29;26.70;53.30
40636;DHT22;26642;55.766;37.828;2022-08-02T06:55:56;26.80;53.20
40636;DHT22;26642;55.766;37.828;2022-08-02T06:58:21;26.70;53.70
40636;DHT22;26642;55.766;37.828;2022-08-02T07:00:48;26.70;53.70
40636;DHT22;26642;55.766;37.828;2022-08-02T07:03:13;26.70;53.90
40636;DHT22;26642;55.766;37.828;2022-08-02T07:05:40;26.80;53.90
40636;DHT22;26642;55.766;37.828;2022-08-02T07:08:06;26.90;53.60
40636;DHT22;26642;55.766;37.828;2022-08-02T07:10:32;27.00;54.40
40636;DHT22;26642;55.766;37.828;2022-08-02T07:12:58;27.10;53.90
40636;DHT22;26642;55.766;37.828;2022-08-02T07:15:24;27.20;52.40
40636;DHT22;26642;55.766;37.828;2022-08-02T07:17:50;27.20;52.20
40636;DHT22;26642;55.766;37.828;2022-08-02T07:20:16;27.20;51.90
40636;DHT22;26642;55.766;37.828;2022-08-02T07:22:42;27.30;52.20
40636;DHT22;26642;55.766;37.828;2022-08-02T07:25:09;27.30;52.00
40636;DHT22;26642;55.766;37.828;2022-08-02T07:27:35;27.30;51.30
40636;DHT22;26642;55.766;37.828;2022-08-02T07:30:01;27.30;51.40
40636;DHT22;26642;55.766;37.828;2022-08-02T07:32:29;27.30;51.70
40636;DHT22;26642;55.766;37.828;2022-08-02T07:34:57;27.40;50.60
40636;DHT22;26642;55.766;37.828;2022-08-02T07:37:27;27.30;50.90
40636;DHT22;26642;55.766;37.828;2022-08-02T07:39:53;27.20;51.60
40636;DHT22;26642;55.766;37.828;2022-08-02T07:42:19;27.20;51.90
40636;DHT22;26642;55.766;37.828;2022-08-02T07:44:45;27.30;51.90
40636;DHT22;26642;55.766;37.828;2022-08-02T07:47:11;27.20;51.00
40636;DHT22;26642;55.766;37.828;2022-08-02T07:49:37;27.20;51.10
40636;DHT22;26642;55.766;37.828;2022-08-02T07:52:03;27.20;51.40
40636;DHT22;26642;55.766;37.828;2022-08-02T07:54:29;27.20;51.50
40636;DHT22;26642;55.766;37.828;2022-08-02T07:56:55;27.20;51.40
40636;DHT22;26642;55.766;37.828;2022-08-02T07:59:21;27.20;51.00
40636;DHT22;26642;55.766;37.828;2022-08-02T08:01:48;27.20;50.90
40636;DHT22;26642;55.766;37.828;2022-08-02T08:04:17;27.20;50.10
40636;DHT22;26642;55.766;37.828;2022-08-02T08:06:43;27.20;50.20
40636;DHT22;26642;55.766;37.828;2022-08-02T08:09:10;27.20;50.70
40636;DHT22;26642;55.766;37.828;2022-08-02T08:11:36;27.20;50.40
40636;DHT22;26642;55.766;37.828;2022-08-02T08:14:04;27.20;50.80
40636;DHT22;26642;55.766;37.828;2022-08-02T08:16:31;27.20;50.90
40636;DHT22;26642;55.766;37.828;2022-08-02T08:18:57;27.10;50.60
40636;DHT22;26642;55.766;37.828;2022-08-02T08:21:23;27.10;50.50
40636;DHT22;26642;55.766;37.828;2022-08-02T08:23:49;27.10;50.20
40636;DHT22;26642;55.766;37.828;2022-08-02T08:26:14;27.10;50.50
40636;DHT22;26642;55.766;37.828;2022-08-02T08:28:41;27.10;50.20
40636;DHT22;26642;55.766;37.828;2022-08-02T08:31:07;27.00;49.70
40636;DHT22;26642;55.766;37.828;2022-08-02T08:33:33;27.00;48.90
40636;DHT22;26642;55.766;37.828;2022-08-02T08:35:59;27.00;49.30
40636;DHT22;26642;55.766;37.828;2022-08-02T08:38:25;26.90;49.50
40636;DHT22;26642;55.766;37.828;2022-08-02T08:40:51;26.90;48.70
40636;DHT22;26642;55.766;37.828;2022-08-02T08:43:17;26.80;49.20
40636;DHT22;26642;55.766;37.828;2022-08-02T08:45:44;26.70;48.80
40636;DHT22;26642;55.766;37.828;2022-08-02T08:48:11;26.70;48.80
40636;DHT22;26642;55.766;37.828;2022-08-02T08:51:12;26.60;48.60
40636;DHT22;26642;55.766;37.828;2022-08-02T08:53:42;26.50;49.20
40636;DHT22;26642;55.766;37.828;2022-08-02T08:56:10;26.40;48.90
40636;DHT22;26642;55.766;37.828;2022-08-02T08:58:37;26.40;49.30
40636;DHT22;26642;55.766;37.828;2022-08-02T09:01:04;26.40;49.30
40636;DHT22;26642;55.766;37.828;2022-08-02T09:03:31;26.40;49.90
40636;DHT22;26642;55.766;37.828;2022-08-02T09:05:57;26.40;49.70
40636;DHT22;26642;55.766;37.828;2022-08-02T09:08:24;26.50;49.60
40636;DHT22;26642;55.766;37.828;2022-08-02T09:10:50;26.40;49.40
40636;DHT22;26642;55.766;37.828;2022-08-02T09:13:21;26.40;49.50
40636;DHT22;26642;55.766;37.828;2022-08-02T09:16:04;26.30;50.00
40636;DHT22;26642;55.766;37.828;2022-08-02T09:18:34;26.30;50.10
40636;DHT22;26642;55.766;37.828;2022-08-02T09:21:04;26.20;51.10
40636;DHT22;26642;55.766;37.828;2022-08-02T09:23:45;26.20;50.30
40636;DHT22;26642;55.766;37.828;2022-08-02T09:26:19;26.20;50.40
40636;DHT22;26642;55.766;37.828;2022-08-02T09:28:48;26.20;50.60
40636;DHT22;26642;55.766;37.828;2022-08-02T09:31:21;26.20;50.50
40636;DHT22;26642;55.766;37.828;2022-08-02T09:33:55;26.20;50.70
40636;DHT22;26642;55.766;37.828;2022-08-02T09:36:23;26.20;50.90
40636;DHT22;26642;55.766;37.828;2022-08-02T09:38:59;26.20;50.90
40636;DHT22;26642;55.766;37.828;2022-08-02T09:41:30;26.20;50.70
40636;DHT22;26642;55.766;37.828;2022-08-02T09:43:57;26.10;50.80
40636;DHT22;26642;55.766;37.828;2022-08-02T09:46:28;26.20;51.10
40636;DHT22;26642;55.766;37.828;2022-08-02T09:48:55;26.10;50.50
40636;DHT22;26642;55.766;37.828;2022-08-02T09:51:25;26.10;51.60
40636;DHT22;26642;55.766;37.828;2022-08-02T09:53:58;26.10;51.40
40636;DHT22;26642;55.766;37.828;2022-08-02T09:56:26;26.10;51.10
40636;DHT22;26642;55.766;37.828;2022-08-02T09:58:53;26.10;51.20
40636;DHT22;26642;55.766;37.828;2022-08-02T10:01:33;26.10;50.80
40636;DHT22;26642;55.766;37.828;2022-08-02T10:04:07;26.20;50.50
40636;DHT22;26642;55.766;37.828;2022-08-02T10:06:36;26.20;50.20
40636;DHT22;26642;55.766;37.828;2022-08-02T10:09:03;26.10;50.40
40636;DHT22;26642;55.766;37.828;2022-08-02T10:11:29;26.00;50.20
40636;DHT22;26642;55.766;37.828;2022-08-02T10:13:56;26.00;50.00
40636;DHT22;26642;55.766;37.828;2022-08-02T10:16:23;26.00;50.20
40636;DHT22;26642;55.766;37.828;2022-08-02T10:18:51;26.00;50.70
40636;DHT22;26642;55.766;37.828;2022-08-02T10:21:25;26.00;50.40
40636;DHT22;26642;55.766;37.828;2022-08-02T10:24:07;26.00;50.80
40636;DHT22;26642;55.766;37.828;2022-08-02T10:26:34;26.00;50.40
40636;DHT22;26642;55.766;37.828;2022-08-02T10:29:00;26.00;49.90
40636;DHT22;26642;55.766;37.828;2022-08-02T10:31:32;26.00;49.80
40636;DHT22;26642;55.766;37.828;2022-08-02T10:34:00;26.00;50.30
40636;DHT22;26642;55.766;37.828;2022-08-02T10:36:32;26.00;50.40
40636;DHT22;26642;55.766;37.828;2022-08-02T10:39:01;26.00;50.00
40636;DHT22;26642;55.766;37.828;2022-08-02T10:41:50;25.90;49.70
40636;DHT22;26642;55.766;37.828;2022-08-02T10:44:30;25.90;49.80
40636;DHT22;26642;55.766;37.828;2022-08-02T10:49:52;25.90;50.00
40636;DHT22;26642;55.766;37.828;2022-08-02T10:52:20;25.90;49.30
40636;DHT22;26642;55.766;37.828;2022-08-02T10:55:00;25.90;49.60
40636;DHT22;26642;55.766;37.828;2022-08-02T10:57:33;25.90;49.50
40636;DHT22;26642;55.766;37.828;2022-08-02T11:00:00;25.90;49.60
40636;DHT22;26642;55.766;37.828;2022-08-02T11:07:52;25.80;49.50
40636;DHT22;26642;55.766;37.828;2022-08-02T11:13:00;25.80;49.00
40636;DHT22;26642;55.766;37.828;2022-08-02T11:15:27;25.80;49.20
40636;DHT22;26642;55.766;37.828;2022-08-02T11:17:54;25.80;49.30
40636;DHT22;26642;55.766;37.828;2022-08-02T11:20:22;25.80;49.50
40636;DHT22;26642;55.766;37.828;2022-08-02T11:22:51;25.80;48.90
40636;DHT22;26642;55.766;37.828;2022-08-02T11:27:53;25.90;49.10
40636;DHT22;26642;55.766;37.828;2022-08-02T11:30:20;25.80;49.00
40636;DHT22;26642;55.766;37.828;2022-08-02T11:32:47;25.80;49.40
40636;DHT22;26642;55.766;37.828;2022-08-02T11:35:14;25.80;49.40
40636;DHT22;26642;55.766;37.828;2022-08-02T11:37:42;25.80;49.50
40636;DHT22;26642;55.766;37.828;2022-08-02T11:40:11;25.80;49.90
40636;DHT22;26642;55.766;37.828;2022-08-02T11:42:39;25.80;49.70
40636;DHT22;26642;55.766;37.828;2022-08-02T11:45:10;25.70;49.40
40636;DHT22;26642;55.766;37.828;2022-08-02T11:47:50;25.70;50.20
40636;DHT22;26642;55.766;37.828;2022-08-02T11:50:18;25.80;50.10
40636;DHT22;26642;55.766;37.828;2022-08-02T11:52:45;25.80;50.40
40636;DHT22;26642;55.766;37.828;2022-08-02T11:55:12;25.90;50.50
40636;DHT22;26642;55.766;37.828;2022-08-02T11:57:39;25.90;50.50
40636;DHT22;26642;55.766;37.828;2022-08-02T12:00:16;25.90;50.00
40636;DHT22;26642;55.766;37.828;2022-08-02T12:02:46;25.90;49.80
40636;DHT22;26642;55.766;37.828;2022-08-02T12:05:18;25.90;49.50
40636;DHT22;26642;55.766;37.828;2022-08-02T12:07:45;26.00;49.80
40636;DHT22;26642;55.766;37.828;2022-08-02T12:10:19;26.00;49.40
40636;DHT22;26642;55.766;37.828;2022-08-02T12:12:57;26.00;49.50
40636;DHT22;26642;55.766;37.828;2022-08-02T12:18:00;26.00;49.80
40636;DHT22;26642;55.766;37.828;2022-08-02T12:20:44;26.10;50.30
40636;DHT22;26642;55.766;37.828;2022-08-02T12:23:10;26.10;49.90
40636;DHT22;26642;55.766;37.828;2022-08-02T12:25:36;26.20;49.60
40636;DHT22;26642;55.766;37.828;2022-08-02T12:30:56;26.20;49.40
40636;DHT22;26642;55.766;37.828;2022-08-02T12:33:24;26.20;49.70
40636;DHT22;26642;55.766;37.828;2022-08-02T12:35:51;26.30;50.00
40636;DHT22;26642;55.766;37.828;2022-08-02T12:38:17;26.30;49.60
40636;DHT22;26642;55.766;37.828;2022-08-02T12:40:43;26.30;48.50
40636;DHT22;26642;55.766;37.828;2022-08-02T12:43:20;26.30;48.50
40636;DHT22;26642;55.766;37.828;2022-08-02T12:45:54;26.20;49.20
40636;DHT22;26642;55.766;37.828;2022-08-02T12:48:38;26.30;48.90
40636;DHT22;26642;55.766;37.828;2022-08-02T12:51:25;26.30;48.90
40636;DHT22;26642;55.766;37.828;2022-08-02T12:53:53;26.30;49.00
40636;DHT22;26642;55.766;37.828;2022-08-02T12:56:28;26.30;49.30
40636;DHT22;26642;55.766;37.828;2022-08-02T12:58:55;26.30;49.90
40636;DHT22;26642;55.766;37.828;2022-08-02T13:01:23;26.30;50.80
40636;DHT22;26642;55.766;37.828;2022-08-02T13:03:50;26.30;51.40
40636;DHT22;26642;55.766;37.828;2022-08-02T13:06:18;26.30;50.20
40636;DHT22;26642;55.766;37.828;2022-08-02T13:08:44;26.30;50.60
40636;DHT22;26642;55.766;37.828;2022-08-02T13:11:10;26.40;50.80
40636;DHT22;26642;55.766;37.828;2022-08-02T13:13:36;26.40;49.40
40636;DHT22;26642;55.766;37.828;2022-08-02T13:16:02;26.40;49.10
40636;DHT22;26642;55.766;37.828;2022-08-02T13:18:28;26.40;48.90
40636;DHT22;26642;55.766;37.828;2022-08-02T13:20:54;26.40;48.90
40636;DHT22;26642;55.766;37.828;2022-08-02T13:23:20;26.40;49.00
40636;DHT22;26642;55.766;37.828;2022-08-02T13:25:46;26.40;49.30
40636;DHT22;26642;55.766;37.828;2022-08-02T13:28:12;26.40;49.40
40636;DHT22;26642;55.766;37.828;2022-08-02T13:30:38;26.40;49.30
40636;DHT22;26642;55.766;37.828;2022-08-02T13:33:04;26.40;49.50
40636;DHT22;26642;55.766;37.828;2022-08-02T13:35:30;26.40;49.90
40636;DHT22;26642;55.766;37.828;2022-08-02T13:37:56;26.40;50.10
40636;DHT22;26642;55.766;37.828;2022-08-02T13:40:22;26.40;49.90
40636;DHT22;26642;55.766;37.828;2022-08-02T13:42:48;26.40;49.80
40636;DHT22;26642;55.766;37.828;2022-08-02T13:45:14;26.40;49.10
40636;DHT22;26642;55.766;37.828;2022-08-02T13:47:42;26.40;49.80
40636;DHT22;26642;55.766;37.828;2022-08-02T13:50:08;26.40;49.60
40636;DHT22;26642;55.766;37.828;2022-08-02T13:52:35;26.50;50.00
40636;DHT22;26642;55.766;37.828;2022-08-02T13:56:01;26.50;49.10
40636;DHT22;26642;55.766;37.828;2022-08-02T13:58:27;27.40;48.50
40636;DHT22;26642;55.766;37.828;2022-08-02T14:00:53;27.60;46.80
40636;DHT22;26642;55.766;37.828;2022-08-02T14:03:19;27.70;46.00
40636;DHT22;26642;55.766;37.828;2022-08-02T14:05:45;27.60;45.70
40636;DHT22;26642;55.766;37.828;2022-08-02T14:08:11;27.50;45.60
40636;DHT22;26642;55.766;37.828;2022-08-02T14:10:37;27.30;46.10
40636;DHT22;26642;55.766;37.828;2022-08-02T14:13:03;27.20;46.10
40636;DHT22;26642;55.766;37.828;2022-08-02T14:15:29;27.10;46.30
40636;DHT22;26642;55.766;37.828;2022-08-02T14:17:55;27.00;46.60
40636;DHT22;26642;55.766;37.828;2022-08-02T14:20:21;27.00;46.80
40636;DHT22;26642;55.766;37.828;2022-08-02T14:22:47;26.90;47.00
40636;DHT22;26642;55.766;37.828;2022-08-02T14:25:13;26.80;47.30
40636;DHT22;26642;55.766;37.828;2022-08-02T14:27:39;26.80;47.60
40636;DHT22;26642;55.766;37.828;2022-08-02T14:30:06;26.80;48.10
40636;DHT22;26642;55.766;37.828;2022-08-02T14:32:32;26.70;47.50
40636;DHT22;26642;55.766;37.828;2022-08-02T14:34:58;26.70;47.80
40636;DHT22;26642;55.766;37.828;2022-08-02T14:37:24;26.60;48.20
40636;DHT22;26642;55.766;37.828;2022-08-02T14:39:50;26.60;47.80
40636;DHT22;26642;55.766;37.828;2022-08-02T14:42:16;26.60;48.50
40636;DHT22;26642;55.766;37.828;2022-08-02T14:44:41;26.60;48.70
40636;DHT22;26642;55.766;37.828;2022-08-02T14:47:07;26.50;48.40
40636;DHT22;26642;55.766;37.828;2022-08-02T14:49:34;26.50;49.60
40636;DHT22;26642;55.766;37.828;2022-08-02T14:52:00;26.50;48.90
40636;DHT22;26642;55.766;37.828;2022-08-02T14:54:26;26.50;48.90
40636;DHT22;26642;55.766;37.828;2022-08-02T14:56:56;26.40;49.00
40636;DHT22;26642;55.766;37.828;2022-08-02T14:59:22;26.40;49.90
40636;DHT22;26642;55.766;37.828;2022-08-02T15:01:48;26.40;49.80
40636;DHT22;26642;55.766;37.828;2022-08-02T15:04:14;26.40;50.00
40636;DHT22;26642;55.766;37.828;2022-08-02T15:06:40;26.40;50.10
40636;DHT22;26642;55.766;37.828;2022-08-02T15:09:06;26.40;50.50
40636;DHT22;26642;55.766;37.828;2022-08-02T15:11:33;26.40;50.30
40636;DHT22;26642;55.766;37.828;2022-08-02T15:13:58;26.40;50.30
40636;DHT22;26642;55.766;37.828;2022-08-02T15:16:25;26.40;50.20
40636;DHT22;26642;55.766;37.828;2022-08-02T15:18:51;26.40;50.00
40636;DHT22;26642;55.766;37.828;2022-08-02T15:21:17;26.40;49.70
40636;DHT22;26642;55.766;37.828;2022-08-02T15:23:43;26.40;49.80
40636;DHT22;26642;55.766;37.828;2022-08-02T15:26:10;26.40;50.40
40636;DHT22;26642;55.766;37.828;2022-08-02T15:28:36;26.40;51.50
40636;DHT22;26642;55.766;37.828;2022-08-02T15:31:03;26.40;51.00
40636;DHT22;26642;55.766;37.828;2022-08-02T15:33:29;26.50;50.50
40636;DHT22;26642;55.766;37.828;2022-08-02T15:35:56;26.50;49.90
40636;DHT22;26642;55.766;37.828;2022-08-02T15:38:22;26.40;49.50
40636;DHT22;26642;55.766;37.828;2022-08-02T15:40:48;26.40;49.70
40636;DHT22;26642;55.766;37.828;2022-08-02T15:43:14;26.40;49.80
40636;DHT22;26642;55.766;37.828;2022-08-02T15:45:40;26.40;50.30
40636;DHT22;26642;55.766;37.828;2022-08-02T15:48:06;26.30;50.50
40636;DHT22;26642;55.766;37.828;2022-08-02T15:50:33;26.30;50.10
40636;DHT22;26642;55.766;37.828;2022-08-02T15:52:59;26.30;50.40
40636;DHT22;26642;55.766;37.828;2022-08-02T15:55:25;26.30;50.80
40636;DHT22;26642;55.766;37.828;2022-08-02T15:57:51;26.30;51.20
40636;DHT22;26642;55.766;37.828;2022-08-02T16:00:17;26.30;51.50